createdAt,value
2018-03-07T00:00:41.865Z,99606.52
2018-03-07T00:03:12.233Z,99612.01
2018-03-07T00:05:41.320Z,99606.21
2018-03-07T00:08:11.016Z,99603.69
2018-03-07T00:10:40.304Z,99597.80
2018-03-07T00:13:09.375Z,99604.81
2018-03-07T00:15:39.752Z,99603.12
2018-03-07T00:18:09.394Z,99598.55
2018-03-07T00:20:42.553Z,99600.62
2018-03-07T00:23:11.658Z,99596.06
2018-03-07T00:25:40.743Z,99592.31
2018-03-07T00:28:09.879Z,99596.11
2018-03-07T00:30:39.007Z,99586.55
2018-03-07T00:33:08.440Z,99591.95
2018-03-07T00:35:38.624Z,99582.32
2018-03-07T00:38:08.422Z,99584.38
2018-03-07T00:40:37.990Z,99580.95
2018-03-07T00:43:07.076Z,99585.05
2018-03-07T00:45:37.115Z,99582.13
2018-03-07T00:48:06.225Z,99580.41
2018-03-07T00:50:35.696Z,99576.66
2018-03-07T00:53:05.467Z,99576.22
2018-03-07T00:55:34.540Z,99568.31
2018-03-07T00:58:03.641Z,99564.91
2018-03-07T01:00:32.706Z,99557.73
2018-03-07T01:03:01.881Z,99557.17
2018-03-07T01:05:30.953Z,99555.82
2018-03-07T01:08:00.068Z,99554.91
2018-03-07T01:10:29.184Z,99551.86
2018-03-07T01:12:58.281Z,99545.92
2018-03-07T01:15:27.342Z,99544.16
2018-03-07T01:17:56.412Z,99548.22
2018-03-07T01:20:25.611Z,99537.67
2018-03-07T01:22:55.219Z,99547.98
2018-03-07T01:25:24.285Z,99549.56
2018-03-07T01:27:53.361Z,99548.62
2018-03-07T01:30:22.659Z,99549.77
2018-03-07T01:32:51.738Z,99554.27
2018-03-07T01:35:21.382Z,99548.78
2018-03-07T01:37:50.514Z,99554.53
2018-03-07T01:40:20.172Z,99560.41
2018-03-07T01:42:49.668Z,99555.84
2018-03-07T01:45:19.091Z,99559.58
2018-03-07T01:47:48.154Z,99553.17
2018-03-07T01:50:17.953Z,99550.59
2018-03-07T01:52:47.800Z,99543.16
2018-03-07T01:55:17.060Z,99543.98
2018-03-07T01:57:46.581Z,99538.55
2018-03-07T02:00:15.700Z,99538.47
2018-03-07T02:02:44.831Z,99523.41
2018-03-07T02:05:14.318Z,99525.45
2018-03-07T02:07:43.408Z,99526.97
2018-03-07T02:10:13.065Z,99526.86
2018-03-07T02:12:42.188Z,99520.94
2018-03-07T02:15:11.331Z,99516.73
2018-03-07T02:17:40.549Z,99512.48
2018-03-07T02:20:10.856Z,99508.20
2018-03-07T02:22:40.525Z,99506.44
2018-03-07T02:25:09.614Z,99508.09
2018-03-07T02:27:38.986Z,99510.94
2018-03-07T02:30:08.351Z,99504.58
2018-03-07T02:32:39.014Z,99503.64
2018-03-07T02:35:10.060Z,99505.72
2018-03-07T02:37:39.155Z,99502.31
2018-03-07T02:40:09.043Z,99506.02
2018-03-07T02:42:38.761Z,99503.97
2018-03-07T02:45:08.528Z,99506.07
2018-03-07T02:47:38.486Z,99498.35
2018-03-07T02:50:08.649Z,99500.59
2018-03-07T02:52:37.899Z,99502.06
2018-03-07T02:55:07.990Z,99508.73
2018-03-07T02:57:39.132Z,99511.96
2018-03-07T03:00:08.522Z,99503.20
2018-03-07T03:02:38.714Z,99497.30
2018-03-07T03:05:08.951Z,99497.70
2018-03-07T03:07:39.119Z,99498.17
2018-03-07T03:10:08.860Z,99499.77
2018-03-07T03:12:38.967Z,99497.25
2018-03-07T03:15:08.035Z,99489.84
2018-03-07T03:17:37.779Z,99496.54
2018-03-07T03:20:06.858Z,99492.78
2018-03-07T03:22:36.259Z,99486.52
2018-03-07T03:25:05.363Z,99486.61
2018-03-07T03:27:34.695Z,99485.05
2018-03-07T03:30:04.569Z,99486.72
2018-03-07T03:32:34.406Z,99489.63
2018-03-07T03:35:03.470Z,99490.31
2018-03-07T03:37:32.578Z,99486.45
2018-03-07T03:40:01.685Z,99490.94
2018-03-07T03:42:30.740Z,99487.89
2018-03-07T03:44:59.840Z,99486.98
2018-03-07T03:47:28.910Z,99485.27
2018-03-07T03:49:59.163Z,99486.02
2018-03-07T03:52:29.599Z,99480.20
2018-03-07T03:54:58.741Z,99479.37
2018-03-07T03:57:28.525Z,99475.67
2018-03-07T03:59:57.587Z,99471.50
2018-03-07T04:02:26.750Z,99477.77
2018-03-07T04:04:55.816Z,99468.93
2018-03-07T04:07:24.879Z,99473.08
2018-03-07T04:09:55.133Z,99465.59
2018-03-07T04:12:24.203Z,99464.35
2018-03-07T04:14:53.283Z,99459.31
2018-03-07T04:17:22.352Z,99451.63
2018-03-07T04:19:51.557Z,99453.16
2018-03-07T04:22:20.651Z,99458.50
2018-03-07T04:24:50.198Z,99454.35
2018-03-07T04:27:19.381Z,99458.98
2018-03-07T04:29:48.451Z,99456.83
2018-03-07T04:32:17.522Z,99453.09
2018-03-07T04:34:46.591Z,99446.81
2018-03-07T04:37:15.656Z,99445.06
2018-03-07T04:39:44.734Z,99446.68
2018-03-07T04:42:13.907Z,99443.88
2018-03-07T04:44:43.578Z,99443.90
2018-03-07T04:47:14.376Z,99436.04
2018-03-07T04:49:44.444Z,99438.56
2018-03-07T04:52:13.510Z,99434.02
2018-03-07T04:54:42.755Z,99438.27
2018-03-07T04:57:12.798Z,99437.87
2018-03-07T04:59:42.060Z,99434.92
2018-03-07T05:02:11.212Z,99441.06
2018-03-07T05:04:40.851Z,99436.78
2018-03-07T05:07:10.586Z,99424.78
2018-03-07T05:09:39.648Z,99425.55
2018-03-07T05:12:08.740Z,99423.05
2018-03-07T05:14:38.073Z,99424.30
2018-03-07T05:17:07.372Z,99428.53
2018-03-07T05:19:36.435Z,99425.25
2018-03-07T05:22:06.288Z,99423.94
2018-03-07T05:24:35.350Z,99419.30
2018-03-07T05:27:04.763Z,99420.97
2018-03-07T05:29:34.123Z,99422.70
2018-03-07T05:32:03.254Z,99420.63
2018-03-07T05:34:32.310Z,99415.31
2018-03-07T05:37:01.429Z,99419.06
2018-03-07T05:39:30.699Z,99414.91
2018-03-07T05:41:59.764Z,99412.38
2018-03-07T05:44:29.388Z,99413.13
2018-03-07T05:46:59.532Z,99417.22
2018-03-07T05:49:29.098Z,99419.69
2018-03-07T05:51:59.753Z,99418.06
2018-03-07T05:54:28.834Z,99424.89
2018-03-07T05:56:58.593Z,99427.41
2018-03-07T05:59:27.659Z,99429.92
2018-03-07T06:01:57.578Z,99431.98
2018-03-07T06:04:26.754Z,99439.40
2018-03-07T06:06:56.982Z,99436.83
2018-03-07T06:09:26.904Z,99436.05
2018-03-07T06:11:56.626Z,99431.97
2018-03-07T06:14:25.876Z,99431.97
2018-03-07T06:16:55.115Z,99432.75
2018-03-07T06:19:24.550Z,99430.25
2018-03-07T06:21:53.707Z,99426.82
2018-03-07T06:24:22.919Z,99429.39
2018-03-07T06:26:51.995Z,99429.81
2018-03-07T06:29:21.597Z,99436.60
2018-03-07T06:31:50.943Z,99430.03
2018-03-07T06:34:20.247Z,99427.55
2018-03-07T06:36:49.728Z,99425.45
2018-03-07T06:39:19.147Z,99430.00
2018-03-07T06:41:48.609Z,99432.83
2018-03-07T06:44:18.290Z,99426.50
2018-03-07T06:46:48.717Z,99426.91
2018-03-07T06:49:18.630Z,99430.55
2018-03-07T06:51:47.787Z,99427.95
2018-03-07T06:54:16.987Z,99426.30
2018-03-07T06:56:47.031Z,99426.66
2018-03-07T06:59:16.268Z,99427.49
2018-03-07T07:01:46.404Z,99431.19
2018-03-07T07:04:15.466Z,99433.67
2018-03-07T07:06:45.078Z,99433.24
2018-03-07T07:09:14.729Z,99443.14
2018-03-07T07:11:43.923Z,99439.30
2018-03-07T07:14:13.016Z,99443.53
2018-03-07T07:16:42.261Z,99442.34
2018-03-07T07:19:11.691Z,99445.98
2018-03-07T07:21:40.882Z,99442.53
2018-03-07T07:24:10.300Z,99441.45
2018-03-07T07:26:40.023Z,99441.04
2018-03-07T07:29:09.166Z,99448.57
2018-03-07T07:31:38.239Z,99447.61
2018-03-07T07:34:08.988Z,99453.45
2018-03-07T07:36:38.262Z,99449.25
2018-03-07T07:39:07.616Z,99449.98
2018-03-07T07:41:36.802Z,99449.05
2018-03-07T07:44:06.574Z,99450.33
2018-03-07T07:46:35.722Z,99444.41
2018-03-07T07:49:05.060Z,99443.75
2018-03-07T07:51:34.295Z,99442.28
2018-03-07T07:54:03.369Z,99443.56
2018-03-07T07:56:32.609Z,99443.26
2018-03-07T07:59:01.817Z,99442.73
2018-03-07T08:01:31.798Z,99446.91
2018-03-07T08:04:01.831Z,99451.52
2018-03-07T08:06:31.473Z,99454.42
2018-03-07T08:09:00.694Z,99455.58
2018-03-07T08:11:30.514Z,99449.11
2018-03-07T08:13:59.814Z,99453.23
2018-03-07T08:16:29.802Z,99452.33
2018-03-07T08:18:58.907Z,99448.66
2018-03-07T08:21:28.377Z,99452.02
2018-03-07T08:23:57.446Z,99451.60
2018-03-07T08:26:26.939Z,99448.57
2018-03-07T08:28:56.130Z,99449.41
2018-03-07T08:31:25.422Z,99445.88
2018-03-07T08:33:55.829Z,99448.47
2018-03-07T08:36:25.559Z,99450.11
2018-03-07T08:38:54.945Z,99445.84
2018-03-07T08:41:24.594Z,99446.46
2018-03-07T08:43:54.074Z,99446.91
2018-03-07T08:46:24.140Z,99448.59
2018-03-07T08:48:53.950Z,99448.55
2018-03-07T08:51:23.663Z,99445.30
2018-03-07T08:53:52.740Z,99443.20
2018-03-07T08:56:22.021Z,99447.70
2018-03-07T08:58:52.468Z,99448.83
2018-03-07T09:01:21.537Z,99443.22
2018-03-07T09:03:51.095Z,99449.76
2018-03-07T09:06:21.414Z,99451.66
2018-03-07T09:08:51.677Z,99445.30
2018-03-07T09:11:21.364Z,99450.69
2018-03-07T09:13:51.004Z,99457.59
2018-03-07T09:16:20.118Z,99453.13
2018-03-07T09:18:49.371Z,99457.27
2018-03-07T09:21:19.015Z,99455.55
2018-03-07T09:23:48.156Z,99457.17
2018-03-07T09:26:17.264Z,99450.87
2018-03-07T09:28:46.473Z,99454.54
2018-03-07T09:31:15.940Z,99450.31
2018-03-07T09:33:45.208Z,99452.34
2018-03-07T09:36:15.034Z,99454.02
2018-03-07T09:38:45.019Z,99453.08
2018-03-07T09:41:14.130Z,99456.42
2018-03-07T09:43:43.207Z,99456.06
2018-03-07T09:46:12.408Z,99460.25
2018-03-07T09:48:41.470Z,99459.84
2018-03-07T09:51:10.610Z,99458.98
2018-03-07T09:53:39.728Z,99458.07
2018-03-07T09:56:08.834Z,99460.11
2018-03-07T09:58:37.946Z,99461.23
2018-03-07T10:01:07.214Z,99457.48
2018-03-07T10:03:36.289Z,99457.48
2018-03-07T10:06:05.486Z,99464.12
2018-03-07T10:08:34.691Z,99462.03
2018-03-07T10:11:03.975Z,99463.77
2018-03-07T10:13:33.458Z,99461.31
2018-03-07T10:16:02.994Z,99469.13
2018-03-07T10:18:32.450Z,99464.12
2018-03-07T10:21:01.812Z,99467.52
2018-03-07T10:23:30.884Z,99467.83
2018-03-07T10:26:00.383Z,99461.87
2018-03-07T10:28:29.907Z,99466.28
2018-03-07T10:30:59.060Z,99466.84
2018-03-07T10:33:28.649Z,99467.13
2018-03-07T10:35:57.832Z,99471.53
2018-03-07T10:38:27.081Z,99469.44
2018-03-07T10:40:56.625Z,99471.84
2018-03-07T10:43:26.337Z,99479.91
2018-03-07T10:45:57.300Z,99472.81
2018-03-07T10:48:26.499Z,99476.16
2018-03-07T10:50:55.646Z,99482.00
2018-03-07T10:53:25.004Z,99480.73
2018-03-07T10:55:54.501Z,99480.09
2018-03-07T10:58:24.007Z,99477.55
2018-03-07T11:00:54.065Z,99478.41
2018-03-07T11:03:23.430Z,99477.98
2018-03-07T11:05:52.586Z,99480.09
2018-03-07T11:08:21.764Z,99481.09
2018-03-07T11:10:50.963Z,99479.19
2018-03-07T11:13:20.530Z,99475.84
2018-03-07T11:15:49.608Z,99485.34
2018-03-07T11:18:19.382Z,99478.23
2018-03-07T11:20:49.107Z,99481.68
2018-03-07T11:23:18.766Z,99474.31
2018-03-07T11:25:48.190Z,99473.78
2018-03-07T11:28:17.255Z,99475.84
2018-03-07T11:30:46.343Z,99474.03
2018-03-07T11:33:15.972Z,99482.34
2018-03-07T11:35:45.189Z,99476.53
2018-03-07T11:38:14.926Z,99479.05
2018-03-07T11:40:45.636Z,99472.80
2018-03-07T11:43:14.843Z,99470.22
2018-03-07T11:45:44.640Z,99470.59
2018-03-07T11:48:15.277Z,99472.35
2018-03-07T11:50:44.397Z,99473.00
2018-03-07T11:53:13.474Z,99468.34
2018-03-07T11:55:42.534Z,99465.59
2018-03-07T11:58:12.440Z,99471.30
2018-03-07T12:00:41.821Z,99464.16
2018-03-07T12:03:11.000Z,99461.42
2018-03-07T12:05:40.279Z,99467.81
2018-03-07T12:08:09.547Z,99467.62
2018-03-07T12:10:38.825Z,99466.66
2018-03-07T12:13:07.898Z,99465.91
2018-03-07T12:15:36.979Z,99457.30
2018-03-07T12:18:06.042Z,99460.06
2018-03-07T12:20:35.108Z,99464.30
2018-03-07T12:23:04.188Z,99464.44
2018-03-07T12:25:33.259Z,99460.03
2018-03-07T12:28:04.540Z,99466.32
2018-03-07T12:30:33.611Z,99467.44
2018-03-07T12:33:02.750Z,99469.77
2018-03-07T12:35:31.875Z,99471.61
2018-03-07T12:38:01.027Z,99468.33
2018-03-07T12:40:30.167Z,99478.66
2018-03-07T12:42:59.485Z,99469.20
2018-03-07T12:45:28.571Z,99470.34
2018-03-07T12:47:57.658Z,99470.38
2018-03-07T12:50:26.725Z,99477.64
2018-03-07T12:52:55.813Z,99476.59
2018-03-07T12:55:24.879Z,99474.33
2018-03-07T12:57:53.954Z,99482.08
2018-03-07T13:00:23.023Z,99481.00
2018-03-07T13:02:52.106Z,99479.03
2018-03-07T13:05:21.182Z,99479.64
2018-03-07T13:07:50.316Z,99474.97
2018-03-07T13:10:19.972Z,99476.39
2018-03-07T13:12:49.052Z,99479.44
2018-03-07T13:15:18.124Z,99478.62
2018-03-07T13:17:47.630Z,99478.30
2018-03-07T13:20:17.055Z,99476.47
2018-03-07T13:22:46.354Z,99475.34
2018-03-07T13:25:15.491Z,99466.45
2018-03-07T13:27:44.562Z,99471.00
2018-03-07T13:30:13.663Z,99470.56
2018-03-07T13:32:42.727Z,99469.77
2018-03-07T13:35:11.874Z,99471.00
2018-03-07T13:37:40.946Z,99475.04
2018-03-07T13:40:10.021Z,99472.44
2018-03-07T13:42:39.463Z,99473.24
2018-03-07T13:45:08.525Z,99476.94
2018-03-07T13:47:38.094Z,99477.64
2018-03-07T13:50:07.168Z,99477.13
2018-03-07T13:52:38.393Z,99474.16
2018-03-07T13:55:07.576Z,99471.67
2018-03-07T13:57:36.665Z,99472.11
2018-03-07T14:00:23.209Z,99472.11
2018-03-07T14:02:52.275Z,99474.34
2018-03-07T14:05:23.020Z,99473.66
2018-03-07T14:07:55.483Z,99477.03
2018-03-07T14:10:29.015Z,99472.48
2018-03-07T14:12:58.334Z,99473.70
2018-03-07T14:15:27.454Z,99475.79
2018-03-07T14:17:56.539Z,99472.72
2018-03-07T14:20:25.755Z,99474.30
2018-03-07T14:22:54.827Z,99480.06
2018-03-07T14:25:23.899Z,99479.29
2018-03-07T14:27:53.044Z,99484.31
2018-03-07T14:30:22.372Z,99483.03
2018-03-07T14:32:51.507Z,99482.98
2018-03-07T14:35:20.570Z,99479.98
2018-03-07T14:37:50.082Z,99481.23
2018-03-07T14:40:19.254Z,99484.52
2018-03-07T14:42:48.318Z,99482.01
2018-03-07T14:45:17.387Z,99480.77
2018-03-07T14:47:46.504Z,99483.77
2018-03-07T14:50:15.571Z,99485.47
2018-03-07T14:52:44.653Z,99480.06
2018-03-07T14:55:13.785Z,99478.02
2018-03-07T14:57:42.850Z,99477.97
2018-03-07T15:00:11.919Z,99480.95
2018-03-07T15:02:40.983Z,99482.64
2018-03-07T15:05:10.077Z,99480.55
2018-03-07T15:07:39.168Z,99483.47
2018-03-07T15:10:08.600Z,99486.81
2018-03-07T15:12:37.693Z,99484.38
2018-03-07T15:15:06.983Z,99483.78
2018-03-07T15:17:36.055Z,99485.25
2018-03-07T15:20:06.654Z,99483.67
2018-03-07T15:22:35.859Z,99488.37
2018-03-07T15:25:05.093Z,99484.16
2018-03-07T15:27:34.214Z,99485.47
2018-03-07T15:30:04.912Z,99486.27
2018-03-07T15:32:34.014Z,99487.55
2018-03-07T15:35:08.852Z,99482.57
2018-03-07T15:37:37.890Z,99492.24
2018-03-07T15:40:08.577Z,99487.75
2018-03-07T15:42:37.822Z,99494.06
2018-03-07T15:45:06.899Z,99495.30
2018-03-07T15:47:36.407Z,99499.03
2018-03-07T15:50:05.479Z,99504.78
2018-03-07T15:52:34.581Z,99503.09
2018-03-07T15:55:03.825Z,99503.89
2018-03-07T15:57:32.941Z,99503.44
2018-03-07T16:00:02.000Z,99506.75
2018-03-07T16:02:31.078Z,99513.48
2018-03-07T16:05:00.176Z,99509.32
2018-03-07T16:07:29.253Z,99513.44
2018-03-07T16:09:58.325Z,99511.29
2018-03-07T16:12:27.386Z,99510.88
2018-03-07T16:14:56.451Z,99512.65
2018-03-07T16:17:26.142Z,99515.64
2018-03-07T16:19:55.517Z,99517.62
2018-03-07T16:22:24.582Z,99518.77
2018-03-07T16:24:53.668Z,99514.51
2018-03-07T16:27:23.272Z,99512.39
2018-03-07T16:29:52.948Z,99517.00
2018-03-07T16:32:22.137Z,99522.08
2018-03-07T16:34:51.463Z,99517.91
2018-03-07T16:37:20.536Z,99518.70
2018-03-07T16:39:49.641Z,99524.61
2018-03-07T16:42:18.746Z,99526.71
2018-03-07T16:44:47.883Z,99525.05
2018-03-07T16:47:17.244Z,99525.88
2018-03-07T16:49:46.338Z,99534.23
2018-03-07T16:52:15.476Z,99530.88
2018-03-07T16:54:44.638Z,99528.72
2018-03-07T16:57:13.716Z,99532.44
2018-03-07T16:59:42.792Z,99534.11
2018-03-07T17:02:11.951Z,99535.01
2018-03-07T17:04:41.677Z,99538.39
2018-03-07T17:07:10.883Z,99537.92
2018-03-07T17:09:39.978Z,99538.34
2018-03-07T17:12:09.398Z,99537.52
2018-03-07T17:14:38.473Z,99545.84
2018-03-07T17:17:07.732Z,99544.61
2018-03-07T17:19:37.130Z,99550.41
2018-03-07T17:22:06.318Z,99552.42
2018-03-07T17:24:35.650Z,99550.34
2018-03-07T17:27:04.831Z,99560.86
2018-03-07T17:29:34.600Z,99555.84
2018-03-07T17:32:03.972Z,99555.00
2018-03-07T17:34:33.123Z,99555.84
2018-03-07T17:37:03.261Z,99555.79
2018-03-07T17:39:32.598Z,99549.89
2018-03-07T17:42:02.814Z,99551.15
2018-03-07T17:44:32.173Z,99549.88
2018-03-07T17:47:02.043Z,99552.41
2018-03-07T17:49:31.246Z,99547.72
2018-03-07T17:52:00.432Z,99549.74
2018-03-07T17:54:29.871Z,99549.28
2018-03-07T17:56:59.050Z,99543.88
2018-03-07T17:59:32.760Z,99547.66
2018-03-07T18:02:02.243Z,99546.84
2018-03-07T18:04:31.647Z,99549.46
2018-03-07T18:07:01.517Z,99551.23
2018-03-07T18:09:31.760Z,99551.65
2018-03-07T18:12:00.951Z,99557.98
2018-03-07T18:14:30.166Z,99555.08
2018-03-07T18:16:59.424Z,99555.56
2018-03-07T18:19:29.394Z,99557.70
2018-03-07T18:21:58.503Z,99556.55
2018-03-07T18:24:27.607Z,99555.73
2018-03-07T18:26:56.685Z,99557.50
2018-03-07T18:29:25.879Z,99558.36
2018-03-07T18:31:55.208Z,99559.16
2018-03-07T18:34:24.549Z,99557.88
2018-03-07T18:36:53.986Z,99559.23
2018-03-07T18:39:25.181Z,99557.73
2018-03-07T18:41:54.283Z,99553.22
2018-03-07T18:44:24.117Z,99560.72
2018-03-07T18:46:54.305Z,99561.06
2018-03-07T18:49:23.840Z,99560.01
2018-03-07T18:51:53.788Z,99556.20
2018-03-07T18:54:22.910Z,99557.80
2018-03-07T18:56:52.031Z,99561.55
2018-03-07T18:59:21.814Z,99556.52
2018-03-07T19:01:50.896Z,99563.93
2018-03-07T19:04:19.976Z,99562.66
2018-03-07T19:06:50.393Z,99566.34
2018-03-07T19:09:19.975Z,99564.98
2018-03-07T19:11:49.062Z,99559.41
2018-03-07T19:14:18.146Z,99554.82
2018-03-07T19:16:47.247Z,99564.02
2018-03-07T19:19:16.367Z,99565.68
2018-03-07T19:21:45.564Z,99569.05
2018-03-07T19:24:15.435Z,99567.39
2018-03-07T19:26:45.102Z,99576.11
2018-03-07T19:29:14.787Z,99567.26
2018-03-07T19:31:43.973Z,99570.96
2018-03-07T19:34:13.353Z,99575.55
2018-03-07T19:36:45.926Z,99577.23
2018-03-07T19:39:24.405Z,99577.22
2018-03-07T19:41:55.298Z,99580.98
2018-03-07T19:44:24.512Z,99579.33
2018-03-07T19:46:55.034Z,99580.72
2018-03-07T19:49:24.370Z,99576.56
2018-03-07T19:51:53.534Z,99578.55
2018-03-07T19:54:23.220Z,99579.31
2018-03-07T19:56:53.297Z,99582.69
2018-03-07T19:59:23.280Z,99584.33
2018-03-07T20:01:52.931Z,99581.47
2018-03-07T20:04:22.117Z,99580.64
2018-03-07T20:06:51.488Z,99581.84
2018-03-07T20:09:20.658Z,99585.62
2018-03-07T20:11:49.862Z,99588.55
2018-03-07T20:14:19.247Z,99584.78
2018-03-07T20:16:48.978Z,99582.58
2018-03-07T20:19:18.493Z,99580.87
2018-03-07T20:21:47.775Z,99589.78
2018-03-07T20:24:16.910Z,99588.56
2018-03-07T20:26:47.405Z,99591.63
2018-03-07T20:29:16.691Z,99591.69
2018-03-07T20:31:46.868Z,99598.26
2018-03-07T20:34:16.016Z,99593.26
2018-03-07T20:36:45.163Z,99598.19
2018-03-07T20:39:14.238Z,99597.67
2018-03-07T20:41:43.310Z,99589.67
2018-03-07T20:44:12.543Z,99595.10
2018-03-07T20:46:42.253Z,99592.16
2018-03-07T20:49:13.604Z,99589.16
2018-03-07T20:51:42.793Z,99595.25
2018-03-07T20:54:11.918Z,99591.44
2018-03-07T20:56:41.122Z,99597.39
2018-03-07T20:59:10.597Z,99592.50
2018-03-07T21:01:39.975Z,99592.20
2018-03-07T21:04:09.170Z,99592.33
2018-03-07T21:06:39.527Z,99592.72
2018-03-07T21:09:08.611Z,99591.38
2018-03-07T21:11:37.991Z,99589.80
2018-03-07T21:14:07.098Z,99593.66
2018-03-07T21:16:36.509Z,99600.34
2018-03-07T21:19:05.906Z,99596.59
2018-03-07T21:21:37.062Z,99593.66
2018-03-07T21:24:07.668Z,99599.08
2018-03-07T21:26:37.545Z,99595.32
2018-03-07T21:29:06.731Z,99598.28
2018-03-07T21:31:36.666Z,99598.21
2018-03-07T21:34:05.798Z,99600.16
2018-03-07T21:36:34.898Z,99599.69
2018-03-07T21:39:04.078Z,99602.11
2018-03-07T21:41:34.052Z,99602.50
2018-03-07T21:44:03.371Z,99608.34
2018-03-07T21:46:32.459Z,99612.11
2018-03-07T21:49:01.553Z,99604.58
2018-03-07T21:51:30.963Z,99600.75
2018-03-07T21:54:00.298Z,99600.70
2018-03-07T21:56:29.366Z,99601.14
2018-03-07T21:58:58.859Z,99604.12
2018-03-07T22:01:28.103Z,99592.47
2018-03-07T22:03:58.124Z,99601.20
2018-03-07T22:06:27.704Z,99604.17
2018-03-07T22:08:57.822Z,99603.41
2018-03-07T22:11:26.940Z,99602.43
2018-03-07T22:13:56.013Z,99607.64
2018-03-07T22:16:25.524Z,99607.58
2018-03-07T22:18:54.723Z,99605.00
2018-03-07T22:21:23.818Z,99604.18
2018-03-07T22:23:52.891Z,99594.95
2018-03-07T22:26:22.030Z,99603.28
2018-03-07T22:28:51.106Z,99598.19
2018-03-07T22:31:20.368Z,99600.38
2018-03-07T22:33:49.720Z,99603.34
2018-03-07T22:36:18.944Z,99600.52
2018-03-07T22:38:48.013Z,99601.14
2018-03-07T22:41:17.095Z,99597.37
2018-03-07T22:43:46.225Z,99595.69
2018-03-07T22:46:15.302Z,99594.47
2018-03-07T22:48:44.375Z,99594.60
2018-03-07T22:51:13.448Z,99597.11
2018-03-07T22:53:42.793Z,99592.52
2018-03-07T22:56:11.863Z,99593.67
2018-03-07T22:58:41.023Z,99595.25
2018-03-07T23:01:10.101Z,99595.98
2018-03-07T23:03:39.186Z,99592.16
2018-03-07T23:06:08.308Z,99594.60
2018-03-07T23:08:37.743Z,99597.41
2018-03-07T23:11:06.950Z,99595.22
2018-03-07T23:13:36.053Z,99587.67
2018-03-07T23:16:05.655Z,99589.75
2018-03-07T23:18:34.870Z,99595.34
2018-03-07T23:21:03.995Z,99600.47
2018-03-07T23:23:33.108Z,99601.29
2018-03-07T23:26:02.182Z,99601.72
2018-03-07T23:28:31.922Z,99603.88
2018-03-07T23:31:00.994Z,99603.88
2018-03-07T23:33:30.070Z,99604.66
2018-03-07T23:35:59.150Z,99606.78
2018-03-07T23:38:28.245Z,99613.13
2018-03-07T23:40:57.323Z,99608.16
2018-03-07T23:43:26.402Z,99607.80
2018-03-07T23:45:55.482Z,99606.88
2018-03-07T23:48:24.556Z,99604.72
2018-03-07T23:50:53.659Z,99606.80
2018-03-07T23:53:22.806Z,99599.34
2018-03-07T23:55:52.114Z,99598.86
2018-03-07T23:58:21.299Z,99607.30
